createdAt,value
2022-12-24T00:00:14.568Z,1.10
2022-12-24T00:02:41.983Z,0.90
2022-12-24T00:05:10.851Z,0.90
2022-12-24T00:07:37.977Z,0.88
2022-12-24T00:10:06.215Z,0.90
2022-12-24T00:12:33.330Z,1.17
2022-12-24T00:15:00.466Z,0.95
2022-12-24T00:17:27.932Z,1.55
2022-12-24T00:19:55.065Z,1.00
2022-12-24T00:22:22.138Z,0.90
2022-12-24T00:24:49.528Z,1.02
2022-12-24T00:27:16.903Z,1.42
2022-12-24T00:29:43.961Z,1.02
2022-12-24T00:32:11.356Z,1.20
2022-12-24T00:34:38.546Z,1.20
2022-12-24T00:37:06.931Z,1.15
2022-12-24T00:39:34.000Z,1.00
2022-12-24T00:42:01.061Z,1.00
2022-12-24T00:44:28.065Z,1.50
2022-12-24T00:46:55.618Z,0.90
2022-12-24T00:49:23.430Z,1.05
2022-12-24T00:51:50.680Z,1.30
2022-12-24T00:54:17.666Z,1.17
2022-12-24T00:56:44.883Z,1.45
2022-12-24T00:59:11.987Z,1.17
2022-12-24T01:01:39.747Z,1.27
2022-12-24T01:04:25.753Z,1.13
2022-12-24T01:06:53.010Z,1.23
2022-12-24T01:09:19.984Z,1.30
2022-12-24T01:11:47.041Z,1.30
2022-12-24T01:14:14.097Z,1.02
2022-12-24T01:16:41.295Z,1.35
2022-12-24T01:19:08.413Z,1.20
2022-12-24T01:21:35.625Z,1.20
2022-12-24T01:24:02.815Z,1.23
2022-12-24T01:26:29.908Z,1.23
2022-12-24T01:28:57.738Z,1.20
2022-12-24T01:31:24.865Z,1.23
2022-12-24T01:33:52.032Z,1.58
2022-12-24T01:36:19.035Z,1.48
2022-12-24T01:38:46.279Z,1.70
2022-12-24T01:41:41.629Z,1.10
2022-12-24T01:44:36.936Z,1.23
2022-12-24T01:47:11.167Z,1.40
2022-12-24T01:49:41.511Z,1.52
2022-12-24T01:52:17.148Z,1.63
2022-12-24T01:54:49.698Z,1.52
2022-12-24T01:57:22.675Z,1.30
2022-12-24T01:59:55.591Z,1.52
2022-12-24T02:02:23.970Z,1.35
2022-12-24T02:04:56.970Z,1.27
2022-12-24T02:07:24.601Z,1.20
2022-12-24T02:09:57.087Z,1.30
2022-12-24T02:12:25.904Z,1.50
2022-12-24T02:14:54.289Z,1.33
2022-12-24T02:17:47.718Z,1.58
2022-12-24T02:20:32.646Z,1.33
2022-12-24T02:25:56.940Z,1.40
2022-12-24T02:28:44.056Z,1.30
2022-12-24T02:31:26.160Z,1.02
2022-12-24T02:34:12.857Z,1.20
2022-12-24T02:37:05.477Z,1.80
2022-12-24T02:39:55.746Z,1.33
2022-12-24T02:42:27.755Z,1.40
2022-12-24T02:45:10.027Z,1.17
2022-12-24T02:47:38.161Z,1.35
2022-12-24T02:50:08.124Z,1.20
2022-12-24T02:52:41.717Z,1.35
2022-12-24T02:55:19.416Z,1.20
2022-12-24T02:58:10.426Z,1.10
2022-12-24T03:00:56.255Z,1.20
2022-12-24T03:03:36.840Z,1.00
2022-12-24T03:06:28.195Z,1.85
2022-12-24T03:09:02.135Z,1.73
2022-12-24T03:11:29.558Z,2.10
2022-12-24T03:13:59.984Z,1.45
2022-12-24T03:16:28.086Z,1.17
2022-12-24T03:18:57.047Z,1.30
2022-12-24T03:21:40.235Z,1.40
2022-12-24T03:24:07.555Z,1.40
2022-12-24T03:26:34.885Z,1.42
2022-12-24T03:29:08.374Z,1.20
2022-12-24T03:31:43.564Z,1.10
2022-12-24T03:34:11.672Z,1.60
2022-12-24T03:36:38.931Z,1.40
2022-12-24T03:39:06.930Z,1.13
2022-12-24T03:41:33.984Z,1.40
2022-12-24T03:44:01.204Z,1.35
2022-12-24T03:46:28.664Z,1.38
2022-12-24T03:48:55.860Z,1.23
2022-12-24T03:51:24.733Z,1.17
2022-12-24T03:53:56.169Z,1.52
2022-12-24T03:56:23.952Z,1.40
2022-12-24T03:58:51.275Z,1.20
2022-12-24T04:01:18.772Z,1.40
2022-12-24T04:03:46.433Z,1.10
2022-12-24T04:06:17.671Z,1.60
2022-12-24T04:08:45.011Z,1.73
2022-12-24T04:11:14.441Z,1.35
2022-12-24T04:13:41.636Z,1.40
2022-12-24T04:16:11.673Z,2.08
2022-12-24T04:18:40.103Z,1.92
2022-12-24T04:21:08.894Z,1.45
2022-12-24T04:23:38.458Z,1.60
2022-12-24T04:26:07.734Z,1.83
2022-12-24T04:28:36.198Z,1.25
2022-12-24T04:31:05.949Z,1.40
2022-12-24T04:33:33.405Z,1.30
2022-12-24T04:36:02.210Z,1.40
2022-12-24T04:38:30.414Z,1.33
2022-12-24T04:41:02.051Z,1.30
2022-12-24T04:43:29.882Z,1.33
2022-12-24T04:45:57.513Z,1.60
2022-12-24T04:48:24.729Z,1.20
2022-12-24T04:50:52.381Z,1.60
2022-12-24T04:53:19.466Z,1.60
2022-12-24T04:55:47.089Z,1.60
2022-12-24T04:58:14.482Z,1.33
2022-12-24T05:00:41.778Z,1.50
2022-12-24T05:03:09.488Z,1.23
2022-12-24T05:05:36.667Z,1.25
2022-12-24T05:08:04.172Z,1.70
2022-12-24T05:10:31.377Z,1.77
2022-12-24T05:12:58.579Z,1.63
2022-12-24T05:15:26.119Z,2.20
2022-12-24T05:17:53.147Z,1.73
2022-12-24T05:20:20.671Z,1.77
2022-12-24T05:23:06.314Z,1.70
2022-12-24T05:25:56.171Z,1.65
2022-12-24T05:28:23.696Z,1.60
2022-12-24T05:30:51.184Z,1.20
2022-12-24T05:33:18.276Z,1.77
2022-12-24T05:35:45.381Z,1.58
2022-12-24T05:38:12.398Z,1.42
2022-12-24T05:40:39.506Z,1.45
2022-12-24T05:43:06.662Z,1.40
2022-12-24T05:45:33.633Z,2.13
2022-12-24T05:48:00.756Z,1.60
2022-12-24T05:50:27.797Z,1.88
2022-12-24T05:52:54.952Z,1.80
2022-12-24T05:55:22.049Z,1.50
2022-12-24T05:57:49.086Z,1.80
2022-12-24T06:00:16.454Z,1.70
2022-12-24T06:02:43.735Z,1.60
2022-12-24T06:05:10.937Z,1.48
2022-12-24T06:07:38.424Z,1.88
2022-12-24T06:10:06.579Z,1.45
2022-12-24T06:12:33.765Z,1.90
2022-12-24T06:15:00.901Z,2.10
2022-12-24T06:17:27.988Z,1.70
2022-12-24T06:19:55.275Z,1.73
2022-12-24T06:22:22.426Z,1.55
2022-12-24T06:24:49.447Z,2.22
2022-12-24T06:27:16.557Z,1.50
2022-12-24T06:29:43.717Z,1.38
2022-12-24T06:32:10.980Z,1.65
2022-12-24T06:34:38.143Z,1.38
2022-12-24T06:37:05.806Z,1.42
2022-12-24T06:39:33.029Z,2.20
2022-12-24T06:42:00.131Z,1.70
2022-12-24T06:44:27.300Z,1.33
2022-12-24T06:46:54.771Z,1.92
2022-12-24T06:49:21.889Z,2.88
2022-12-24T06:51:49.193Z,1.75
2022-12-24T06:54:16.311Z,2.00
2022-12-24T06:56:43.477Z,2.08
2022-12-24T06:59:10.551Z,2.50
2022-12-24T07:01:37.669Z,3.05
2022-12-24T07:04:05.017Z,1.83
2022-12-24T07:06:32.509Z,1.95
2022-12-24T07:08:59.600Z,2.47
2022-12-24T07:11:26.996Z,2.10
2022-12-24T07:13:54.059Z,2.55
2022-12-24T07:16:21.787Z,1.90
2022-12-24T07:18:49.224Z,1.90
2022-12-24T07:21:16.349Z,1.58
2022-12-24T07:23:43.584Z,1.77
2022-12-24T07:26:11.051Z,1.70
2022-12-24T07:28:38.072Z,1.90
2022-12-24T07:31:05.248Z,1.88
2022-12-24T07:33:32.503Z,2.30
2022-12-24T07:36:02.264Z,3.50
2022-12-24T07:38:30.250Z,2.47
2022-12-24T07:40:58.110Z,3.47
2022-12-24T07:43:26.732Z,2.53
2022-12-24T07:45:58.451Z,2.63
2022-12-24T07:48:27.141Z,3.47
2022-12-24T07:50:54.653Z,2.20
2022-12-24T07:53:21.986Z,2.45
2022-12-24T07:55:49.527Z,1.67
2022-12-24T07:58:16.661Z,1.80
2022-12-24T08:00:44.014Z,2.10
2022-12-24T08:03:20.124Z,2.00
2022-12-24T08:05:47.826Z,2.15
2022-12-24T08:08:15.315Z,2.75
2022-12-24T08:10:44.869Z,1.90
2022-12-24T08:13:12.454Z,1.60
2022-12-24T08:15:39.525Z,2.08
2022-12-24T08:18:06.605Z,1.70
2022-12-24T08:20:33.715Z,1.45
2022-12-24T08:23:00.797Z,1.90
2022-12-24T08:25:28.035Z,1.90
2022-12-24T08:27:55.087Z,2.05
2022-12-24T08:30:22.184Z,2.40
2022-12-24T08:32:49.574Z,2.40
2022-12-24T08:35:17.434Z,1.98
2022-12-24T08:37:44.510Z,2.22
2022-12-24T08:40:11.988Z,2.42
2022-12-24T08:42:39.432Z,2.28
2022-12-24T08:45:07.533Z,2.20
2022-12-24T08:47:34.923Z,2.50
2022-12-24T08:50:02.023Z,2.05
2022-12-24T08:52:29.203Z,2.20
2022-12-24T08:54:56.269Z,2.20
2022-12-24T08:57:23.276Z,3.15
2022-12-24T08:59:50.379Z,2.15
2022-12-24T09:02:17.684Z,2.70
2022-12-24T09:04:45.059Z,2.67
2022-12-24T09:07:12.304Z,1.85
2022-12-24T09:09:39.399Z,2.20
2022-12-24T09:12:07.599Z,2.00
2022-12-24T09:14:34.867Z,2.05
2022-12-24T09:17:02.039Z,1.95
2022-12-24T09:19:29.292Z,2.20
2022-12-24T09:21:56.263Z,2.53
2022-12-24T09:24:23.509Z,2.63
2022-12-24T09:26:57.357Z,2.20
2022-12-24T09:29:25.524Z,2.10
2022-12-24T09:31:52.642Z,2.30
2022-12-24T09:34:22.700Z,2.60
2022-12-24T09:36:54.408Z,2.45
2022-12-24T09:39:21.569Z,2.50
2022-12-24T09:42:03.263Z,2.67
2022-12-24T09:44:49.299Z,2.60
2022-12-24T09:47:33.448Z,2.00
2022-12-24T09:50:05.102Z,2.60
2022-12-24T09:52:41.422Z,3.38
2022-12-24T09:55:32.620Z,2.63
2022-12-24T09:58:02.321Z,2.38
2022-12-24T10:00:33.417Z,2.30
2022-12-24T10:03:01.033Z,2.38
2022-12-24T10:05:44.275Z,2.47
2022-12-24T10:08:27.351Z,2.47
2022-12-24T10:11:00.801Z,2.10
2022-12-24T10:13:45.089Z,1.67
2022-12-24T10:16:45.229Z,2.50
2022-12-24T10:19:30.697Z,2.88
2022-12-24T10:22:26.611Z,2.10
2022-12-24T10:25:18.140Z,2.95
2022-12-24T10:27:45.985Z,2.55
2022-12-24T10:30:22.765Z,2.95
2022-12-24T10:32:54.778Z,2.30
2022-12-24T10:35:40.611Z,3.28
2022-12-24T10:38:09.327Z,2.20
2022-12-24T10:40:59.160Z,1.80
2022-12-24T10:43:28.593Z,2.00
2022-12-24T10:45:59.573Z,3.15
2022-12-24T10:48:32.500Z,2.40
2022-12-24T10:51:14.885Z,2.08
2022-12-24T10:53:52.207Z,2.75
2022-12-24T10:56:21.078Z,2.42
2022-12-24T10:58:55.660Z,2.25
2022-12-24T11:01:47.138Z,2.97
2022-12-24T11:04:18.421Z,2.00
2022-12-24T11:07:01.065Z,1.80
2022-12-24T11:09:43.443Z,2.33
2022-12-24T11:12:21.651Z,2.88
2022-12-24T11:14:50.278Z,1.90
2022-12-24T11:17:23.247Z,2.22
2022-12-24T11:19:50.941Z,2.05
2022-12-24T11:22:22.911Z,2.05
2022-12-24T11:24:58.432Z,2.00
2022-12-24T11:27:39.148Z,2.35
2022-12-24T11:30:23.377Z,2.17
2022-12-24T11:33:17.624Z,1.88
2022-12-24T11:35:49.834Z,1.77
2022-12-24T11:38:27.591Z,1.95
2022-12-24T11:41:11.351Z,1.90
2022-12-24T11:43:44.799Z,2.65
2022-12-24T11:46:34.869Z,2.30
2022-12-24T11:49:26.812Z,1.85
2022-12-24T11:52:12.447Z,2.35
2022-12-24T11:55:16.707Z,2.88
2022-12-24T11:58:00.709Z,2.08
2022-12-24T12:00:28.616Z,2.53
2022-12-24T12:02:59.308Z,1.77
2022-12-24T12:05:33.539Z,1.90
2022-12-24T12:08:20.537Z,2.63
2022-12-24T12:10:49.977Z,2.38
2022-12-24T12:13:23.448Z,1.95
2022-12-24T12:16:11.203Z,1.90
2022-12-24T12:18:47.264Z,2.05
2022-12-24T12:21:19.420Z,2.00
2022-12-24T12:23:52.283Z,2.50
2022-12-24T12:26:28.468Z,2.22
2022-12-24T12:29:18.716Z,2.25
2022-12-24T12:31:49.792Z,2.90
2022-12-24T12:34:40.753Z,2.10
2022-12-24T12:37:31.088Z,2.20
2022-12-24T12:39:58.199Z,2.38
2022-12-24T12:42:30.838Z,2.38
2022-12-24T12:45:08.128Z,2.17
2022-12-24T12:48:03.470Z,2.00
2022-12-24T12:50:49.650Z,2.20
2022-12-24T12:53:42.057Z,1.60
2022-12-24T12:56:30.568Z,1.90
2022-12-24T12:59:03.992Z,2.33
2022-12-24T13:01:47.130Z,1.90
2022-12-24T13:04:47.619Z,2.83
2022-12-24T13:07:38.000Z,2.22
2022-12-24T13:10:15.261Z,2.30
2022-12-24T13:13:01.115Z,2.13
2022-12-24T13:16:05.324Z,1.90
2022-12-24T13:18:51.474Z,2.10
2022-12-24T13:21:22.887Z,1.92
2022-12-24T13:23:50.785Z,2.63
2022-12-24T13:26:19.612Z,2.45
2022-12-24T13:28:46.650Z,2.17
2022-12-24T13:31:20.123Z,2.30
2022-12-24T13:33:50.124Z,2.00
2022-12-24T13:36:19.504Z,2.20
2022-12-24T13:38:48.284Z,2.08
2022-12-24T13:41:38.633Z,2.40
2022-12-24T13:44:07.588Z,2.47
2022-12-24T13:46:47.998Z,2.13
2022-12-24T13:49:26.002Z,2.33
2022-12-24T13:52:11.422Z,2.05
2022-12-24T13:54:55.529Z,1.90
2022-12-24T13:57:45.231Z,2.00
2022-12-24T14:00:21.309Z,2.17
2022-12-24T14:02:57.568Z,2.47
2022-12-24T14:05:43.235Z,2.10
2022-12-24T14:08:28.003Z,1.92
2022-12-24T14:11:03.803Z,2.28
2022-12-24T14:13:39.981Z,2.13
2022-12-24T14:16:21.691Z,2.95
2022-12-24T14:19:10.160Z,2.33
2022-12-24T14:21:44.066Z,2.03
2022-12-24T14:24:36.054Z,2.75
2022-12-24T14:27:39.939Z,2.83
2022-12-24T14:30:20.322Z,2.42
2022-12-24T14:32:48.915Z,2.95
2022-12-24T14:35:21.841Z,2.90
2022-12-24T14:38:02.000Z,2.10
2022-12-24T14:40:41.892Z,3.78
2022-12-24T14:43:46.910Z,3.08
2022-12-24T14:47:03.059Z,2.33
2022-12-24T14:49:49.019Z,2.27
2022-12-24T14:53:03.409Z,2.13
2022-12-24T14:55:31.323Z,2.22
2022-12-24T14:58:25.069Z,1.73
2022-12-24T15:00:54.602Z,1.88
2022-12-24T15:03:25.055Z,1.63
2022-12-24T15:05:59.116Z,1.75
2022-12-24T15:08:33.535Z,2.10
2022-12-24T15:11:03.765Z,2.00
2022-12-24T15:13:45.318Z,2.03
2022-12-24T15:16:18.655Z,2.25
2022-12-24T15:18:51.941Z,2.75
2022-12-24T15:21:25.434Z,5.05
2022-12-24T15:23:53.170Z,12.57
2022-12-24T15:26:29.565Z,13.93
2022-12-24T15:29:03.372Z,6.47
2022-12-24T15:31:31.556Z,2.60
2022-12-24T15:34:01.802Z,2.20
2022-12-24T15:36:35.304Z,1.88
2022-12-24T15:39:06.482Z,1.75
2022-12-24T15:42:00.195Z,2.10
2022-12-24T15:44:35.477Z,1.80
2022-12-24T15:47:04.970Z,2.20
2022-12-24T15:49:33.298Z,2.10
2022-12-24T15:52:05.757Z,2.50
2022-12-24T15:54:32.911Z,1.70
2022-12-24T15:56:59.938Z,2.28
2022-12-24T15:59:38.497Z,1.95
2022-12-24T16:02:33.364Z,1.90
2022-12-24T16:05:19.562Z,1.92
2022-12-24T16:08:07.454Z,1.92
2022-12-24T16:10:40.599Z,1.52
2022-12-24T16:13:23.928Z,1.70
2022-12-24T16:15:59.000Z,2.30
2022-12-24T16:18:31.600Z,5.38
2022-12-24T16:20:58.836Z,3.20
2022-12-24T16:23:32.803Z,2.50
2022-12-24T16:25:59.868Z,1.95
2022-12-24T16:28:27.026Z,2.15
2022-12-24T16:30:56.400Z,1.73
2022-12-24T16:33:24.155Z,2.25
2022-12-24T16:35:51.351Z,2.47
2022-12-24T16:38:18.463Z,2.08
2022-12-24T16:40:45.836Z,2.30
2022-12-24T16:43:31.540Z,3.50
2022-12-24T16:46:08.207Z,3.70
2022-12-24T16:48:37.067Z,3.58
2022-12-24T16:51:04.155Z,3.70
2022-12-24T16:53:31.205Z,3.45
2022-12-24T16:55:58.524Z,4.57
2022-12-24T16:58:25.718Z,5.30
2022-12-24T17:00:53.636Z,4.40
2022-12-24T17:03:21.085Z,4.30
2022-12-24T17:05:48.476Z,4.15
2022-12-24T17:08:15.771Z,11.02
2022-12-24T17:10:51.050Z,13.73
2022-12-24T17:13:18.068Z,16.13
2022-12-24T17:15:45.327Z,10.52
2022-12-24T17:18:12.597Z,6.72
2022-12-24T17:20:40.697Z,10.07
2022-12-24T17:23:07.832Z,11.55
2022-12-24T17:25:36.319Z,10.45
2022-12-24T17:28:03.470Z,9.88
2022-12-24T17:30:30.530Z,18.63
2022-12-24T17:32:57.641Z,19.20
2022-12-24T17:35:24.618Z,18.17
2022-12-24T17:37:51.750Z,10.77
2022-12-24T17:40:18.786Z,8.45
2022-12-24T17:42:45.752Z,9.80
2022-12-24T17:45:12.773Z,11.10
2022-12-24T17:47:39.736Z,10.48
2022-12-24T17:50:07.359Z,6.47
2022-12-24T17:52:34.823Z,5.70
2022-12-24T17:55:01.885Z,5.32
2022-12-24T17:57:28.938Z,6.75
2022-12-24T17:59:57.426Z,6.60
2022-12-24T18:02:24.674Z,5.63
2022-12-24T18:04:52.244Z,4.45
2022-12-24T18:07:19.339Z,5.43
2022-12-24T18:09:46.419Z,6.75
2022-12-24T18:12:13.865Z,9.05
2022-12-24T18:14:40.932Z,12.98
2022-12-24T18:17:08.525Z,11.23
2022-12-24T18:19:35.558Z,6.32
2022-12-24T18:22:02.748Z,5.93
2022-12-24T18:24:29.705Z,6.25
2022-12-24T18:26:57.212Z,5.78
2022-12-24T18:29:24.497Z,5.60
2022-12-24T18:31:51.949Z,5.22
2022-12-24T18:34:19.301Z,4.18
2022-12-24T18:36:52.883Z,3.35
2022-12-24T18:39:22.021Z,3.38
2022-12-24T18:41:49.631Z,3.25
2022-12-24T18:44:20.918Z,3.40
2022-12-24T18:46:51.634Z,4.53
2022-12-24T18:49:18.991Z,5.07
2022-12-24T18:51:46.538Z,5.25
2022-12-24T18:54:13.569Z,5.38
2022-12-24T18:56:40.585Z,4.53
2022-12-24T18:59:07.935Z,4.80
2022-12-24T19:01:35.622Z,4.47
2022-12-24T19:04:03.313Z,3.90
2022-12-24T19:06:30.396Z,4.47
2022-12-24T19:08:59.685Z,3.85
2022-12-24T19:11:29.249Z,3.80
2022-12-24T19:13:58.237Z,3.97
2022-12-24T19:16:26.489Z,4.15
2022-12-24T19:18:54.896Z,5.40
2022-12-24T19:21:22.166Z,5.68
2022-12-24T19:23:49.269Z,9.25
2022-12-24T19:26:18.551Z,12.73
2022-12-24T19:28:46.171Z,7.03
2022-12-24T19:31:21.739Z,4.68
2022-12-24T19:33:51.571Z,5.43
2022-12-24T19:36:21.469Z,4.43
2022-12-24T19:38:48.642Z,3.80
2022-12-24T19:41:18.596Z,3.55
2022-12-24T19:43:48.071Z,4.50
2022-12-24T19:46:18.939Z,3.45
2022-12-24T19:48:50.489Z,3.13
2022-12-24T19:51:18.672Z,2.70
2022-12-24T19:53:46.451Z,3.35
2022-12-24T19:56:20.940Z,2.97
2022-12-24T19:58:48.992Z,3.40
2022-12-24T20:01:23.694Z,2.80
2022-12-24T20:03:52.604Z,3.10
2022-12-24T20:06:24.397Z,2.20
2022-12-24T20:08:51.605Z,2.22
2022-12-24T20:11:20.761Z,2.15
2022-12-24T20:13:48.364Z,2.83
2022-12-24T20:16:20.569Z,3.00
2022-12-24T20:18:52.370Z,3.20
2022-12-24T20:21:19.330Z,3.67
2022-12-24T20:23:46.704Z,3.95
2022-12-24T20:26:15.653Z,3.70
2022-12-24T20:28:43.295Z,3.80
2022-12-24T20:31:15.874Z,3.38
2022-12-24T20:33:44.521Z,3.30
2022-12-24T20:36:13.146Z,3.17
2022-12-24T20:38:40.413Z,3.28
2022-12-24T20:41:09.804Z,3.38
2022-12-24T20:43:47.094Z,3.50
2022-12-24T20:46:17.141Z,3.42
2022-12-24T20:48:44.593Z,3.47
2022-12-24T20:51:22.841Z,5.45
2022-12-24T20:53:52.648Z,5.03
2022-12-24T20:56:19.997Z,4.80
2022-12-24T20:58:46.981Z,4.05
2022-12-24T21:01:24.596Z,4.60
2022-12-24T21:03:53.775Z,4.15
2022-12-24T21:06:21.699Z,5.03
2022-12-24T21:08:50.338Z,4.30
2022-12-24T21:11:35.751Z,3.15
2022-12-24T21:14:03.095Z,2.80
2022-12-24T21:16:31.983Z,2.53
2022-12-24T21:18:59.451Z,2.38
2022-12-24T21:21:26.714Z,2.33
2022-12-24T21:23:54.482Z,2.35
2022-12-24T21:26:21.486Z,2.42
2022-12-24T21:28:49.183Z,2.38
2022-12-24T21:31:17.078Z,2.60
2022-12-24T21:33:44.201Z,2.95
2022-12-24T21:36:13.162Z,3.30
2022-12-24T21:38:41.125Z,3.10
2022-12-24T21:41:14.079Z,3.20
2022-12-24T21:43:42.037Z,4.47
2022-12-24T21:46:11.433Z,4.22
2022-12-24T21:48:57.491Z,4.47
2022-12-24T21:51:26.430Z,4.20
2022-12-24T21:54:12.314Z,3.90
2022-12-24T21:56:57.821Z,3.53
2022-12-24T21:59:27.098Z,3.58
2022-12-24T22:01:55.820Z,3.78
2022-12-24T22:04:23.410Z,4.47
2022-12-24T22:07:09.192Z,5.32
2022-12-24T22:09:56.957Z,4.82
2022-12-24T22:12:24.215Z,5.05
2022-12-24T22:14:51.364Z,5.18
2022-12-24T22:17:24.664Z,5.32
2022-12-24T22:19:52.698Z,5.18
2022-12-24T22:22:19.673Z,4.55
2022-12-24T22:24:46.747Z,4.35
2022-12-24T22:27:14.051Z,4.05
2022-12-24T22:29:41.148Z,3.85
2022-12-24T22:32:08.133Z,3.92
2022-12-24T22:34:36.193Z,4.22
2022-12-24T22:37:03.433Z,5.78
2022-12-24T22:39:30.590Z,7.82
2022-12-24T22:42:00.592Z,5.85
2022-12-24T22:44:27.693Z,5.63
2022-12-24T22:46:55.302Z,4.93
2022-12-24T22:49:22.532Z,5.45
2022-12-24T22:51:49.572Z,5.60
2022-12-24T22:54:16.766Z,4.75
2022-12-24T22:56:43.971Z,4.93
2022-12-24T22:59:13.951Z,4.40
2022-12-24T23:01:44.590Z,3.90
2022-12-24T23:04:13.925Z,4.90
2022-12-24T23:06:41.697Z,4.60
2022-12-24T23:09:10.893Z,4.68
2022-12-24T23:11:39.710Z,4.35
2022-12-24T23:14:25.359Z,4.13
2022-12-24T23:16:52.607Z,4.68
2022-12-24T23:19:19.951Z,4.22
2022-12-24T23:21:47.082Z,4.20
2022-12-24T23:24:14.565Z,3.90
2022-12-24T23:26:42.403Z,3.40
2022-12-24T23:29:09.533Z,3.53
2022-12-24T23:31:37.804Z,3.10
2022-12-24T23:34:05.222Z,3.10
2022-12-24T23:36:32.418Z,2.67
2022-12-24T23:38:59.717Z,2.28
2022-12-24T23:41:26.782Z,2.00
2022-12-24T23:43:53.993Z,1.55
2022-12-24T23:46:21.864Z,1.50
2022-12-24T23:48:52.830Z,1.73
2022-12-24T23:51:23.682Z,1.52
2022-12-24T23:53:52.393Z,1.30
2022-12-24T23:56:20.459Z,1.60
2022-12-24T23:58:48.114Z,1.27
